sensor_id;sensor_type;location;lat;lon;timestamp;P1;durP1;ratioP1;P2;durP2;ratioP2
51292;SDS011;37377;45.186;9.778;2023-12-28T00:00:12;65.82;;;47.22;;
51292;SDS011;37377;45.186;9.778;2023-12-28T00:02:39;62.78;;;46.20;;
51292;SDS011;37377;45.186;9.778;2023-12-28T00:05:11;71.72;;;47.50;;
51292;SDS011;37377;45.186;9.778;2023-12-28T00:07:45;68.47;;;48.00;;
51292;SDS011;37377;45.186;9.778;2023-12-28T00:10:18;68.67;;;47.53;;
51292;SDS011;37377;45.186;9.778;2023-12-28T00:12:57;63.30;;;46.85;;
51292;SDS011;37377;45.186;9.778;2023-12-28T00:15:56;67.10;;;49.72;;
51292;SDS011;37377;45.186;9.778;2023-12-28T00:18:23;71.57;;;50.33;;
51292;SDS011;37377;45.186;9.778;2023-12-28T00:20:50;69.20;;;49.28;;
51292;SDS011;37377;45.186;9.778;2023-12-28T00:23:17;66.05;;;48.10;;
51292;SDS011;37377;45.186;9.778;2023-12-28T00:26:07;62.47;;;46.78;;
51292;SDS011;37377;45.186;9.778;2023-12-28T00:29:05;62.72;;;47.53;;
51292;SDS011;37377;45.186;9.778;2023-12-28T00:31:32;67.97;;;47.47;;
51292;SDS011;37377;45.186;9.778;2023-12-28T00:33:59;62.88;;;47.25;;
51292;SDS011;37377;45.186;9.778;2023-12-28T00:36:26;62.85;;;47.78;;
51292;SDS011;37377;45.186;9.778;2023-12-28T00:38:53;57.25;;;45.40;;
51292;SDS011;37377;45.186;9.778;2023-12-28T00:41:20;65.78;;;47.90;;
51292;SDS011;37377;45.186;9.778;2023-12-28T00:43:47;67.07;;;47.63;;
51292;SDS011;37377;45.186;9.778;2023-12-28T00:46:14;65.40;;;47.97;;
51292;SDS011;37377;45.186;9.778;2023-12-28T00:48:42;66.07;;;47.70;;
51292;SDS011;37377;45.186;9.778;2023-12-28T00:51:10;67.85;;;46.38;;
51292;SDS011;37377;45.186;9.778;2023-12-28T00:53:37;61.22;;;46.55;;
51292;SDS011;37377;45.186;9.778;2023-12-28T00:56:04;64.07;;;46.47;;
51292;SDS011;37377;45.186;9.778;2023-12-28T00:58:31;58.60;;;45.78;;
51292;SDS011;37377;45.186;9.778;2023-12-28T01:01:08;62.95;;;45.85;;
51292;SDS011;37377;45.186;9.778;2023-12-28T01:03:46;66.15;;;46.88;;
51292;SDS011;37377;45.186;9.778;2023-12-28T01:06:43;70.65;;;47.90;;
51292;SDS011;37377;45.186;9.778;2023-12-28T01:09:24;64.05;;;46.13;;
51292;SDS011;37377;45.186;9.778;2023-12-28T01:12:04;63.22;;;46.97;;
51292;SDS011;37377;45.186;9.778;2023-12-28T01:14:32;64.50;;;45.92;;
51292;SDS011;37377;45.186;9.778;2023-12-28T01:16:59;58.67;;;46.25;;
51292;SDS011;37377;45.186;9.778;2023-12-28T01:19:26;65.63;;;47.45;;
51292;SDS011;37377;45.186;9.778;2023-12-28T01:22:16;60.67;;;46.08;;
51292;SDS011;37377;45.186;9.778;2023-12-28T01:25:13;66.63;;;47.33;;
51292;SDS011;37377;45.186;9.778;2023-12-28T01:27:40;65.75;;;47.35;;
51292;SDS011;37377;45.186;9.778;2023-12-28T01:30:07;62.63;;;46.95;;
51292;SDS011;37377;45.186;9.778;2023-12-28T01:33:17;61.03;;;46.90;;
51292;SDS011;37377;45.186;9.778;2023-12-28T01:35:44;60.70;;;46.90;;
51292;SDS011;37377;45.186;9.778;2023-12-28T01:38:20;64.30;;;46.80;;
51292;SDS011;37377;45.186;9.778;2023-12-28T01:40:47;64.00;;;47.92;;
51292;SDS011;37377;45.186;9.778;2023-12-28T01:43:26;62.72;;;46.75;;
51292;SDS011;37377;45.186;9.778;2023-12-28T01:45:53;62.30;;;45.58;;
51292;SDS011;37377;45.186;9.778;2023-12-28T01:48:20;57.97;;;45.67;;
51292;SDS011;37377;45.186;9.778;2023-12-28T01:50:47;62.45;;;46.10;;
51292;SDS011;37377;45.186;9.778;2023-12-28T01:53:14;62.25;;;47.17;;
51292;SDS011;37377;45.186;9.778;2023-12-28T01:55:41;62.13;;;45.67;;
51292;SDS011;37377;45.186;9.778;2023-12-28T01:58:08;60.58;;;47.20;;
51292;SDS011;37377;45.186;9.778;2023-12-28T02:00:34;63.35;;;48.22;;
51292;SDS011;37377;45.186;9.778;2023-12-28T02:03:08;59.08;;;46.28;;
51292;SDS011;37377;45.186;9.778;2023-12-28T02:05:35;64.85;;;47.90;;
51292;SDS011;37377;45.186;9.778;2023-12-28T02:08:02;58.60;;;47.60;;
51292;SDS011;37377;45.186;9.778;2023-12-28T02:10:30;68.82;;;51.50;;
51292;SDS011;37377;45.186;9.778;2023-12-28T02:12:57;64.53;;;49.30;;
51292;SDS011;37377;45.186;9.778;2023-12-28T02:15:24;59.97;;;45.53;;
51292;SDS011;37377;45.186;9.778;2023-12-28T02:18:01;62.65;;;49.08;;
51292;SDS011;37377;45.186;9.778;2023-12-28T02:20:34;81.95;;;49.53;;
51292;SDS011;37377;45.186;9.778;2023-12-28T02:23:01;63.67;;;47.15;;
51292;SDS011;37377;45.186;9.778;2023-12-28T02:25:28;64.80;;;48.20;;
51292;SDS011;37377;45.186;9.778;2023-12-28T02:27:55;65.72;;;47.22;;
51292;SDS011;37377;45.186;9.778;2023-12-28T02:30:24;55.58;;;45.00;;
51292;SDS011;37377;45.186;9.778;2023-12-28T02:33:07;56.45;;;45.50;;
51292;SDS011;37377;45.186;9.778;2023-12-28T02:35:42;57.75;;;43.53;;
51292;SDS011;37377;45.186;9.778;2023-12-28T02:38:13;58.50;;;46.10;;
51292;SDS011;37377;45.186;9.778;2023-12-28T02:40:45;59.58;;;44.72;;
51292;SDS011;37377;45.186;9.778;2023-12-28T02:43:12;54.72;;;44.60;;
51292;SDS011;37377;45.186;9.778;2023-12-28T02:45:39;60.28;;;44.33;;
51292;SDS011;37377;45.186;9.778;2023-12-28T02:48:06;58.38;;;45.40;;
51292;SDS011;37377;45.186;9.778;2023-12-28T02:50:36;60.88;;;45.10;;
51292;SDS011;37377;45.186;9.778;2023-12-28T02:53:03;60.55;;;46.20;;
51292;SDS011;37377;45.186;9.778;2023-12-28T02:55:34;61.72;;;47.33;;
51292;SDS011;37377;45.186;9.778;2023-12-28T02:58:23;57.03;;;46.28;;
51292;SDS011;37377;45.186;9.778;2023-12-28T03:00:58;60.55;;;48.08;;
51292;SDS011;37377;45.186;9.778;2023-12-28T03:03:25;64.28;;;47.47;;
51292;SDS011;37377;45.186;9.778;2023-12-28T03:05:54;61.15;;;47.58;;
51292;SDS011;37377;45.186;9.778;2023-12-28T03:08:23;63.92;;;47.22;;
51292;SDS011;37377;45.186;9.778;2023-12-28T03:11:30;63.85;;;48.20;;
51292;SDS011;37377;45.186;9.778;2023-12-28T03:13:58;62.10;;;48.08;;
51292;SDS011;37377;45.186;9.778;2023-12-28T03:16:32;67.90;;;50.08;;
51292;SDS011;37377;45.186;9.778;2023-12-28T03:19:43;64.30;;;47.10;;
51292;SDS011;37377;45.186;9.778;2023-12-28T03:22:48;65.15;;;48.95;;
51292;SDS011;37377;45.186;9.778;2023-12-28T03:25:15;62.65;;;47.40;;
51292;SDS011;37377;45.186;9.778;2023-12-28T03:27:43;58.47;;;47.83;;
51292;SDS011;37377;45.186;9.778;2023-12-28T03:30:11;58.85;;;46.20;;
51292;SDS011;37377;45.186;9.778;2023-12-28T03:32:38;60.35;;;46.63;;
51292;SDS011;37377;45.186;9.778;2023-12-28T03:35:43;61.92;;;47.40;;
51292;SDS011;37377;45.186;9.778;2023-12-28T03:38:24;62.35;;;47.45;;
51292;SDS011;37377;45.186;9.778;2023-12-28T03:40:51;61.65;;;46.85;;
51292;SDS011;37377;45.186;9.778;2023-12-28T03:43:46;71.60;;;50.67;;
51292;SDS011;37377;45.186;9.778;2023-12-28T03:46:44;67.80;;;51.05;;
51292;SDS011;37377;45.186;9.778;2023-12-28T03:49:11;66.15;;;49.67;;
51292;SDS011;37377;45.186;9.778;2023-12-28T03:51:38;66.60;;;50.20;;
51292;SDS011;37377;45.186;9.778;2023-12-28T03:54:05;62.70;;;48.70;;
51292;SDS011;37377;45.186;9.778;2023-12-28T03:56:32;65.13;;;48.70;;
51292;SDS011;37377;45.186;9.778;2023-12-28T03:59:01;68.63;;;50.22;;
51292;SDS011;37377;45.186;9.778;2023-12-28T04:01:28;58.85;;;48.20;;
51292;SDS011;37377;45.186;9.778;2023-12-28T04:03:55;63.00;;;47.67;;
51292;SDS011;37377;45.186;9.778;2023-12-28T04:06:23;59.55;;;46.97;;
51292;SDS011;37377;45.186;9.778;2023-12-28T04:08:50;60.58;;;49.25;;
51292;SDS011;37377;45.186;9.778;2023-12-28T04:11:17;69.30;;;48.92;;
51292;SDS011;37377;45.186;9.778;2023-12-28T04:13:44;69.13;;;48.90;;
51292;SDS011;37377;45.186;9.778;2023-12-28T04:16:12;70.97;;;49.15;;
51292;SDS011;37377;45.186;9.778;2023-12-28T04:18:42;61.25;;;46.78;;
51292;SDS011;37377;45.186;9.778;2023-12-28T04:21:10;61.63;;;46.53;;
51292;SDS011;37377;45.186;9.778;2023-12-28T04:23:40;69.28;;;50.33;;
51292;SDS011;37377;45.186;9.778;2023-12-28T04:26:08;64.55;;;47.50;;
51292;SDS011;37377;45.186;9.778;2023-12-28T04:28:35;63.03;;;48.42;;
51292;SDS011;37377;45.186;9.778;2023-12-28T04:31:05;68.38;;;47.95;;
51292;SDS011;37377;45.186;9.778;2023-12-28T04:33:33;66.85;;;47.90;;
51292;SDS011;37377;45.186;9.778;2023-12-28T04:36:01;64.85;;;49.20;;
51292;SDS011;37377;45.186;9.778;2023-12-28T04:38:32;61.15;;;49.08;;
51292;SDS011;37377;45.186;9.778;2023-12-28T04:41:00;64.28;;;48.90;;
51292;SDS011;37377;45.186;9.778;2023-12-28T04:43:27;68.65;;;49.08;;
51292;SDS011;37377;45.186;9.778;2023-12-28T04:45:54;68.43;;;51.00;;
51292;SDS011;37377;45.186;9.778;2023-12-28T04:48:21;70.32;;;50.47;;
51292;SDS011;37377;45.186;9.778;2023-12-28T04:50:51;71.15;;;50.28;;
51292;SDS011;37377;45.186;9.778;2023-12-28T04:53:19;62.33;;;48.33;;
51292;SDS011;37377;45.186;9.778;2023-12-28T04:55:46;68.40;;;51.45;;
51292;SDS011;37377;45.186;9.778;2023-12-28T04:58:14;64.90;;;49.88;;
51292;SDS011;37377;45.186;9.778;2023-12-28T05:00:41;70.50;;;50.90;;
51292;SDS011;37377;45.186;9.778;2023-12-28T05:03:09;67.18;;;51.72;;
51292;SDS011;37377;45.186;9.778;2023-12-28T05:05:36;67.57;;;52.13;;
51292;SDS011;37377;45.186;9.778;2023-12-28T05:08:03;70.53;;;51.80;;
51292;SDS011;37377;45.186;9.778;2023-12-28T05:10:30;67.45;;;52.20;;
51292;SDS011;37377;45.186;9.778;2023-12-28T05:12:57;72.03;;;51.83;;
51292;SDS011;37377;45.186;9.778;2023-12-28T05:15:28;67.45;;;50.88;;
51292;SDS011;37377;45.186;9.778;2023-12-28T05:17:55;77.65;;;55.72;;
51292;SDS011;37377;45.186;9.778;2023-12-28T05:20:23;72.47;;;52.50;;
51292;SDS011;37377;45.186;9.778;2023-12-28T05:22:50;74.15;;;53.85;;
51292;SDS011;37377;45.186;9.778;2023-12-28T05:25:17;84.43;;;55.35;;
51292;SDS011;37377;45.186;9.778;2023-12-28T05:27:43;66.80;;;52.17;;
51292;SDS011;37377;45.186;9.778;2023-12-28T05:30:10;66.82;;;51.63;;
51292;SDS011;37377;45.186;9.778;2023-12-28T05:32:39;67.85;;;51.47;;
51292;SDS011;37377;45.186;9.778;2023-12-28T05:35:06;83.55;;;53.42;;
51292;SDS011;37377;45.186;9.778;2023-12-28T05:37:34;66.30;;;52.40;;
51292;SDS011;37377;45.186;9.778;2023-12-28T05:40:00;70.60;;;52.10;;
51292;SDS011;37377;45.186;9.778;2023-12-28T05:42:28;71.55;;;53.22;;
51292;SDS011;37377;45.186;9.778;2023-12-28T05:44:55;70.90;;;53.83;;
51292;SDS011;37377;45.186;9.778;2023-12-28T05:47:22;83.00;;;56.58;;
51292;SDS011;37377;45.186;9.778;2023-12-28T05:49:49;78.65;;;57.53;;
51292;SDS011;37377;45.186;9.778;2023-12-28T05:52:16;69.85;;;57.45;;
51292;SDS011;37377;45.186;9.778;2023-12-28T05:54:46;74.45;;;54.60;;
51292;SDS011;37377;45.186;9.778;2023-12-28T05:57:15;77.72;;;54.60;;
51292;SDS011;37377;45.186;9.778;2023-12-28T05:59:42;73.07;;;55.65;;
51292;SDS011;37377;45.186;9.778;2023-12-28T06:02:09;69.80;;;53.28;;
51292;SDS011;37377;45.186;9.778;2023-12-28T06:04:36;74.57;;;55.50;;
51292;SDS011;37377;45.186;9.778;2023-12-28T06:07:03;82.88;;;57.28;;
51292;SDS011;37377;45.186;9.778;2023-12-28T06:09:31;69.78;;;56.42;;
51292;SDS011;37377;45.186;9.778;2023-12-28T06:11:58;73.05;;;56.53;;
51292;SDS011;37377;45.186;9.778;2023-12-28T06:14:25;78.30;;;56.22;;
51292;SDS011;37377;45.186;9.778;2023-12-28T06:16:52;78.28;;;57.35;;
51292;SDS011;37377;45.186;9.778;2023-12-28T06:19:19;73.90;;;56.95;;
51292;SDS011;37377;45.186;9.778;2023-12-28T06:21:46;74.35;;;56.33;;
51292;SDS011;37377;45.186;9.778;2023-12-28T06:24:14;80.18;;;58.05;;
51292;SDS011;37377;45.186;9.778;2023-12-28T06:26:42;84.72;;;63.92;;
51292;SDS011;37377;45.186;9.778;2023-12-28T06:29:09;82.53;;;62.35;;
51292;SDS011;37377;45.186;9.778;2023-12-28T06:31:36;80.70;;;58.80;;
51292;SDS011;37377;45.186;9.778;2023-12-28T06:34:04;80.82;;;58.78;;
51292;SDS011;37377;45.186;9.778;2023-12-28T06:36:33;73.07;;;56.88;;
51292;SDS011;37377;45.186;9.778;2023-12-28T06:39:00;81.18;;;59.08;;
51292;SDS011;37377;45.186;9.778;2023-12-28T06:41:27;81.65;;;58.58;;
51292;SDS011;37377;45.186;9.778;2023-12-28T06:43:54;82.15;;;58.10;;
51292;SDS011;37377;45.186;9.778;2023-12-28T06:46:21;74.20;;;58.13;;
51292;SDS011;37377;45.186;9.778;2023-12-28T06:48:48;72.20;;;58.53;;
51292;SDS011;37377;45.186;9.778;2023-12-28T06:51:16;74.68;;;59.78;;
51292;SDS011;37377;45.186;9.778;2023-12-28T06:53:45;80.55;;;59.50;;
51292;SDS011;37377;45.186;9.778;2023-12-28T06:56:12;90.15;;;70.10;;
51292;SDS011;37377;45.186;9.778;2023-12-28T06:58:39;84.13;;;60.30;;
51292;SDS011;37377;45.186;9.778;2023-12-28T07:01:06;81.88;;;59.67;;
51292;SDS011;37377;45.186;9.778;2023-12-28T07:03:33;75.95;;;59.67;;
51292;SDS011;37377;45.186;9.778;2023-12-28T07:06:00;81.28;;;59.88;;
51292;SDS011;37377;45.186;9.778;2023-12-28T07:08:27;76.85;;;58.92;;
51292;SDS011;37377;45.186;9.778;2023-12-28T07:10:54;99.15;;;59.78;;
51292;SDS011;37377;45.186;9.778;2023-12-28T07:13:21;89.72;;;60.53;;
51292;SDS011;37377;45.186;9.778;2023-12-28T07:15:48;76.90;;;58.90;;
51292;SDS011;37377;45.186;9.778;2023-12-28T07:18:15;80.13;;;57.88;;
51292;SDS011;37377;45.186;9.778;2023-12-28T07:20:42;79.03;;;60.53;;
51292;SDS011;37377;45.186;9.778;2023-12-28T07:23:11;76.07;;;58.63;;
51292;SDS011;37377;45.186;9.778;2023-12-28T07:25:39;78.47;;;57.65;;
51292;SDS011;37377;45.186;9.778;2023-12-28T07:28:08;80.65;;;60.42;;
51292;SDS011;37377;45.186;9.778;2023-12-28T07:30:35;78.35;;;60.53;;
51292;SDS011;37377;45.186;9.778;2023-12-28T07:33:03;82.45;;;60.72;;
51292;SDS011;37377;45.186;9.778;2023-12-28T07:35:30;129.48;;;99.28;;
51292;SDS011;37377;45.186;9.778;2023-12-28T07:37:57;81.00;;;62.10;;
51292;SDS011;37377;45.186;9.778;2023-12-28T07:40:24;88.63;;;60.50;;
51292;SDS011;37377;45.186;9.778;2023-12-28T07:42:51;78.13;;;59.38;;
51292;SDS011;37377;45.186;9.778;2023-12-28T07:45:18;85.13;;;61.03;;
51292;SDS011;37377;45.186;9.778;2023-12-28T07:47:50;88.60;;;62.25;;
51292;SDS011;37377;45.186;9.778;2023-12-28T07:50:18;87.65;;;63.10;;
51292;SDS011;37377;45.186;9.778;2023-12-28T07:52:45;82.40;;;60.72;;
51292;SDS011;37377;45.186;9.778;2023-12-28T07:55:15;77.05;;;58.28;;
51292;SDS011;37377;45.186;9.778;2023-12-28T07:57:43;81.28;;;59.70;;
51292;SDS011;37377;45.186;9.778;2023-12-28T08:00:10;77.20;;;57.65;;
51292;SDS011;37377;45.186;9.778;2023-12-28T08:02:37;80.93;;;59.65;;
51292;SDS011;37377;45.186;9.778;2023-12-28T08:05:05;94.72;;;61.47;;
51292;SDS011;37377;45.186;9.778;2023-12-28T08:07:32;76.15;;;60.30;;
51292;SDS011;37377;45.186;9.778;2023-12-28T08:09:59;99.57;;;62.58;;
51292;SDS011;37377;45.186;9.778;2023-12-28T08:12:27;88.15;;;62.25;;
51292;SDS011;37377;45.186;9.778;2023-12-28T08:14:55;89.63;;;63.38;;
51292;SDS011;37377;45.186;9.778;2023-12-28T08:17:22;91.57;;;62.33;;
51292;SDS011;37377;45.186;9.778;2023-12-28T08:19:49;82.07;;;61.15;;
51292;SDS011;37377;45.186;9.778;2023-12-28T08:22:17;80.90;;;60.92;;
51292;SDS011;37377;45.186;9.778;2023-12-28T08:24:45;84.88;;;62.33;;
51292;SDS011;37377;45.186;9.778;2023-12-28T08:27:12;87.18;;;63.35;;
51292;SDS011;37377;45.186;9.778;2023-12-28T08:29:40;90.18;;;64.72;;
51292;SDS011;37377;45.186;9.778;2023-12-28T08:32:08;84.50;;;65.03;;
51292;SDS011;37377;45.186;9.778;2023-12-28T08:34:37;82.07;;;62.20;;
51292;SDS011;37377;45.186;9.778;2023-12-28T08:37:05;81.07;;;62.70;;
51292;SDS011;37377;45.186;9.778;2023-12-28T08:39:32;84.13;;;62.05;;
51292;SDS011;37377;45.186;9.778;2023-12-28T08:41:59;89.88;;;59.28;;
51292;SDS011;37377;45.186;9.778;2023-12-28T08:44:26;86.35;;;60.78;;
51292;SDS011;37377;45.186;9.778;2023-12-28T08:46:52;102.35;;;61.75;;
51292;SDS011;37377;45.186;9.778;2023-12-28T08:49:19;88.53;;;66.18;;
51292;SDS011;37377;45.186;9.778;2023-12-28T08:51:47;85.22;;;63.58;;
51292;SDS011;37377;45.186;9.778;2023-12-28T08:54:14;83.40;;;61.92;;
51292;SDS011;37377;45.186;9.778;2023-12-28T08:56:41;86.18;;;62.35;;
51292;SDS011;37377;45.186;9.778;2023-12-28T08:59:08;78.68;;;60.00;;
51292;SDS011;37377;45.186;9.778;2023-12-28T09:01:35;70.40;;;56.75;;
51292;SDS011;37377;45.186;9.778;2023-12-28T09:04:02;80.47;;;56.92;;
51292;SDS011;37377;45.186;9.778;2023-12-28T09:06:28;72.88;;;55.50;;
51292;SDS011;37377;45.186;9.778;2023-12-28T09:08:56;79.90;;;55.75;;
51292;SDS011;37377;45.186;9.778;2023-12-28T09:11:23;72.30;;;54.85;;
51292;SDS011;37377;45.186;9.778;2023-12-28T09:13:50;77.32;;;54.25;;
51292;SDS011;37377;45.186;9.778;2023-12-28T09:16:17;80.78;;;53.05;;
51292;SDS011;37377;45.186;9.778;2023-12-28T09:18:44;84.85;;;53.50;;
51292;SDS011;37377;45.186;9.778;2023-12-28T09:21:11;88.43;;;54.63;;
51292;SDS011;37377;45.186;9.778;2023-12-28T09:23:38;75.22;;;52.38;;
51292;SDS011;37377;45.186;9.778;2023-12-28T09:26:06;70.57;;;52.22;;
51292;SDS011;37377;45.186;9.778;2023-12-28T09:28:33;81.00;;;53.05;;
51292;SDS011;37377;45.186;9.778;2023-12-28T09:31:01;72.28;;;52.90;;
51292;SDS011;37377;45.186;9.778;2023-12-28T09:33:29;67.22;;;50.58;;
51292;SDS011;37377;45.186;9.778;2023-12-28T09:35:57;77.50;;;52.67;;
51292;SDS011;37377;45.186;9.778;2023-12-28T09:38:24;73.07;;;54.45;;
51292;SDS011;37377;45.186;9.778;2023-12-28T09:40:54;80.30;;;54.28;;
51292;SDS011;37377;45.186;9.778;2023-12-28T09:43:25;78.38;;;55.38;;
51292;SDS011;37377;45.186;9.778;2023-12-28T09:45:57;89.97;;;54.83;;
51292;SDS011;37377;45.186;9.778;2023-12-28T09:48:24;79.68;;;55.78;;
51292;SDS011;37377;45.186;9.778;2023-12-28T09:50:51;78.57;;;55.70;;
51292;SDS011;37377;45.186;9.778;2023-12-28T09:53:24;77.00;;;56.65;;
51292;SDS011;37377;45.186;9.778;2023-12-28T09:55:51;90.90;;;58.60;;
51292;SDS011;37377;45.186;9.778;2023-12-28T09:58:19;81.65;;;59.50;;
51292;SDS011;37377;45.186;9.778;2023-12-28T10:00:47;84.47;;;58.53;;
51292;SDS011;37377;45.186;9.778;2023-12-28T10:03:16;97.10;;;64.47;;
51292;SDS011;37377;45.186;9.778;2023-12-28T10:05:44;87.90;;;63.90;;
51292;SDS011;37377;45.186;9.778;2023-12-28T10:08:15;91.45;;;58.03;;
51292;SDS011;37377;45.186;9.778;2023-12-28T10:10:42;84.00;;;58.03;;
51292;SDS011;37377;45.186;9.778;2023-12-28T10:13:17;81.60;;;58.83;;
51292;SDS011;37377;45.186;9.778;2023-12-28T10:15:44;78.88;;;57.92;;
51292;SDS011;37377;45.186;9.778;2023-12-28T10:18:11;78.28;;;56.65;;
51292;SDS011;37377;45.186;9.778;2023-12-28T10:20:38;97.32;;;60.20;;
51292;SDS011;37377;45.186;9.778;2023-12-28T10:23:06;109.07;;;68.18;;
51292;SDS011;37377;45.186;9.778;2023-12-28T10:25:34;82.72;;;61.13;;
51292;SDS011;37377;45.186;9.778;2023-12-28T10:28:05;100.60;;;69.57;;
51292;SDS011;37377;45.186;9.778;2023-12-28T10:30:33;136.43;;;90.10;;
51292;SDS011;37377;45.186;9.778;2023-12-28T10:33:00;83.05;;;56.78;;
51292;SDS011;37377;45.186;9.778;2023-12-28T10:35:28;91.88;;;59.25;;
51292;SDS011;37377;45.186;9.778;2023-12-28T10:37:56;79.82;;;60.33;;
51292;SDS011;37377;45.186;9.778;2023-12-28T10:40:27;85.85;;;60.13;;
51292;SDS011;37377;45.186;9.778;2023-12-28T10:42:54;87.75;;;59.67;;
51292;SDS011;37377;45.186;9.778;2023-12-28T10:45:25;83.30;;;59.40;;
51292;SDS011;37377;45.186;9.778;2023-12-28T10:50:30;96.13;;;61.30;;
51292;SDS011;37377;45.186;9.778;2023-12-28T10:55:42;98.78;;;67.28;;
51292;SDS011;37377;45.186;9.778;2023-12-28T10:58:49;93.18;;;65.82;;
51292;SDS011;37377;45.186;9.778;2023-12-28T11:01:23;102.72;;;64.20;;
51292;SDS011;37377;45.186;9.778;2023-12-28T11:03:58;87.00;;;61.00;;
51292;SDS011;37377;45.186;9.778;2023-12-28T11:06:31;110.32;;;72.50;;
51292;SDS011;37377;45.186;9.778;2023-12-28T11:08:59;100.97;;;65.05;;
51292;SDS011;37377;45.186;9.778;2023-12-28T11:11:28;110.15;;;79.38;;
51292;SDS011;37377;45.186;9.778;2023-12-28T11:13:56;94.82;;;63.10;;
51292;SDS011;37377;45.186;9.778;2023-12-28T11:16:27;95.43;;;63.38;;
51292;SDS011;37377;45.186;9.778;2023-12-28T11:18:55;90.93;;;64.07;;
51292;SDS011;37377;45.186;9.778;2023-12-28T11:21:23;74.10;;;53.92;;
51292;SDS011;37377;45.186;9.778;2023-12-28T11:23:51;72.30;;;53.03;;
51292;SDS011;37377;45.186;9.778;2023-12-28T11:26:19;90.20;;;56.10;;
51292;SDS011;37377;45.186;9.778;2023-12-28T11:28:47;75.90;;;54.40;;
51292;SDS011;37377;45.186;9.778;2023-12-28T11:31:15;78.63;;;53.55;;
51292;SDS011;37377;45.186;9.778;2023-12-28T11:33:50;89.70;;;60.05;;
51292;SDS011;37377;45.186;9.778;2023-12-28T11:36:25;82.35;;;55.58;;
51292;SDS011;37377;45.186;9.778;2023-12-28T11:39:01;88.45;;;53.67;;
51292;SDS011;37377;45.186;9.778;2023-12-28T11:41:31;74.53;;;53.35;;
51292;SDS011;37377;45.186;9.778;2023-12-28T11:44:02;97.30;;;54.67;;
51292;SDS011;37377;45.186;9.778;2023-12-28T11:46:31;79.60;;;52.72;;
51292;SDS011;37377;45.186;9.778;2023-12-28T11:49:03;91.63;;;57.13;;
51292;SDS011;37377;45.186;9.778;2023-12-28T11:51:37;73.40;;;53.10;;
51292;SDS011;37377;45.186;9.778;2023-12-28T11:54:06;92.00;;;64.10;;
51292;SDS011;37377;45.186;9.778;2023-12-28T11:56:33;95.88;;;56.08;;
51292;SDS011;37377;45.186;9.778;2023-12-28T11:59:00;79.55;;;55.50;;
51292;SDS011;37377;45.186;9.778;2023-12-28T12:01:27;76.55;;;55.20;;
51292;SDS011;37377;45.186;9.778;2023-12-28T12:03:54;97.35;;;56.95;;
51292;SDS011;37377;45.186;9.778;2023-12-28T12:06:21;72.72;;;52.00;;
51292;SDS011;37377;45.186;9.778;2023-12-28T12:08:49;76.78;;;52.05;;
51292;SDS011;37377;45.186;9.778;2023-12-28T12:11:16;76.55;;;51.25;;
51292;SDS011;37377;45.186;9.778;2023-12-28T12:13:44;72.47;;;52.30;;
51292;SDS011;37377;45.186;9.778;2023-12-28T12:16:15;72.90;;;52.10;;
51292;SDS011;37377;45.186;9.778;2023-12-28T12:18:44;79.40;;;51.72;;
51292;SDS011;37377;45.186;9.778;2023-12-28T12:21:16;67.65;;;50.47;;
51292;SDS011;37377;45.186;9.778;2023-12-28T12:23:44;77.78;;;50.20;;
51292;SDS011;37377;45.186;9.778;2023-12-28T12:26:12;99.18;;;58.22;;
51292;SDS011;37377;45.186;9.778;2023-12-28T12:28:40;71.03;;;47.08;;
51292;SDS011;37377;45.186;9.778;2023-12-28T12:31:09;65.47;;;45.88;;
51292;SDS011;37377;45.186;9.778;2023-12-28T12:33:38;64.03;;;45.25;;
51292;SDS011;37377;45.186;9.778;2023-12-28T12:36:07;70.40;;;48.03;;
51292;SDS011;37377;45.186;9.778;2023-12-28T12:38:35;66.13;;;48.17;;
51292;SDS011;37377;45.186;9.778;2023-12-28T12:41:04;60.08;;;46.50;;
51292;SDS011;37377;45.186;9.778;2023-12-28T12:43:33;66.35;;;43.33;;
51292;SDS011;37377;45.186;9.778;2023-12-28T12:46:00;73.55;;;43.42;;
51292;SDS011;37377;45.186;9.778;2023-12-28T12:48:27;62.60;;;43.13;;
51292;SDS011;37377;45.186;9.778;2023-12-28T12:50:54;55.28;;;42.67;;
51292;SDS011;37377;45.186;9.778;2023-12-28T12:53:22;74.25;;;46.13;;
51292;SDS011;37377;45.186;9.778;2023-12-28T12:55:53;76.45;;;49.33;;
51292;SDS011;37377;45.186;9.778;2023-12-28T12:58:21;62.65;;;44.67;;
51292;SDS011;37377;45.186;9.778;2023-12-28T13:00:49;70.07;;;46.13;;
51292;SDS011;37377;45.186;9.778;2023-12-28T13:03:17;91.07;;;45.47;;
51292;SDS011;37377;45.186;9.778;2023-12-28T13:05:46;66.05;;;44.95;;
51292;SDS011;37377;45.186;9.778;2023-12-28T13:08:13;65.53;;;45.15;;
51292;SDS011;37377;45.186;9.778;2023-12-28T13:10:40;64.40;;;48.45;;
51292;SDS011;37377;45.186;9.778;2023-12-28T13:13:15;60.65;;;46.08;;
51292;SDS011;37377;45.186;9.778;2023-12-28T13:15:42;64.57;;;47.00;;
51292;SDS011;37377;45.186;9.778;2023-12-28T13:18:40;60.67;;;46.47;;
51292;SDS011;37377;45.186;9.778;2023-12-28T13:21:38;66.07;;;44.58;;
51292;SDS011;37377;45.186;9.778;2023-12-28T13:24:35;69.07;;;44.25;;
51292;SDS011;37377;45.186;9.778;2023-12-28T13:27:02;55.90;;;41.95;;
51292;SDS011;37377;45.186;9.778;2023-12-28T13:29:29;67.07;;;44.58;;
51292;SDS011;37377;45.186;9.778;2023-12-28T13:31:56;57.15;;;42.25;;
51292;SDS011;37377;45.186;9.778;2023-12-28T13:34:24;60.65;;;43.20;;
51292;SDS011;37377;45.186;9.778;2023-12-28T13:36:51;62.88;;;42.45;;
51292;SDS011;37377;45.186;9.778;2023-12-28T13:39:19;58.00;;;43.22;;
51292;SDS011;37377;45.186;9.778;2023-12-28T13:41:46;55.50;;;40.05;;
51292;SDS011;37377;45.186;9.778;2023-12-28T13:44:13;57.92;;;39.55;;
51292;SDS011;37377;45.186;9.778;2023-12-28T13:46:40;55.67;;;38.47;;
51292;SDS011;37377;45.186;9.778;2023-12-28T13:49:07;51.60;;;39.35;;
51292;SDS011;37377;45.186;9.778;2023-12-28T13:51:35;57.72;;;39.92;;
51292;SDS011;37377;45.186;9.778;2023-12-28T13:54:02;64.28;;;40.47;;
51292;SDS011;37377;45.186;9.778;2023-12-28T13:56:32;50.33;;;38.95;;
51292;SDS011;37377;45.186;9.778;2023-12-28T13:58:58;81.32;;;41.33;;
51292;SDS011;37377;45.186;9.778;2023-12-28T14:01:25;59.50;;;39.60;;
51292;SDS011;37377;45.186;9.778;2023-12-28T14:03:52;68.70;;;39.47;;
51292;SDS011;37377;45.186;9.778;2023-12-28T14:06:20;56.45;;;37.90;;
51292;SDS011;37377;45.186;9.778;2023-12-28T14:08:47;85.45;;;38.33;;
51292;SDS011;37377;45.186;9.778;2023-12-28T14:11:13;51.95;;;37.28;;
51292;SDS011;37377;45.186;9.778;2023-12-28T14:13:40;50.70;;;35.40;;
51292;SDS011;37377;45.186;9.778;2023-12-28T14:16:07;49.38;;;35.63;;
51292;SDS011;37377;45.186;9.778;2023-12-28T14:18:35;52.70;;;36.67;;
51292;SDS011;37377;45.186;9.778;2023-12-28T14:21:02;53.58;;;36.88;;
51292;SDS011;37377;45.186;9.778;2023-12-28T14:23:32;50.33;;;36.38;;
51292;SDS011;37377;45.186;9.778;2023-12-28T14:25:59;52.03;;;37.03;;
51292;SDS011;37377;45.186;9.778;2023-12-28T14:28:26;53.58;;;36.95;;
51292;SDS011;37377;45.186;9.778;2023-12-28T14:30:55;53.05;;;37.55;;
51292;SDS011;37377;45.186;9.778;2023-12-28T14:33:22;44.33;;;35.03;;
51292;SDS011;37377;45.186;9.778;2023-12-28T14:35:50;53.85;;;37.20;;
51292;SDS011;37377;45.186;9.778;2023-12-28T14:38:17;51.50;;;35.42;;
51292;SDS011;37377;45.186;9.778;2023-12-28T14:40:43;59.90;;;35.53;;